Weather at Garner Road Heliport

Public forecast

Using degrees Fahrenheit for public forecast. Weather courtesy of forecast.io.

Closest aviation weather report (METAR) to Garner Road Heliport

Closest report is Raleigh Durham International Airport, 11.7 nm (21.6 km) NW. Retrieved 2020/10/25 03:51 UTC (34 minutes ago):

KRDU 250351Z 00000KT 10SM FEW150 BKN250 20/17 A2998 RMK AO2 SLP147 T02000172

Closest aviation forecast (TAF) to Garner Road Heliport

Closest forecast is Raleigh Durham International Airport, 11.7 nm (21.6 km) NW. Retrieved 2020-10-25 00:36 UTC (4 hours ago):

TAF KRDU 242335Z 2500/2524 VRB03KT P6SM SCT040 BKN200 FM250600 06003KT P6SM VCSH OVC050 FM250800 05005KT 6SM -RA OVC015 FM251100 05007KT 4SM -RA BR OVC007 FM251400 04011KT 2SM -RA BR OVC005 FM252100 05008KT 3SM -DZ OVC003